Tilton, NH (03276)

4:57 PM EST on December 26, 2014 (GMT -0500)
Silver Lake at Tilton New Hampshire | Change Station
CLOSE
Current Station
Personal Weather Station
Location: Tilton,, NH
Elevation: 527 ft
Nearby Weather Stations

Elev 527 ft 43.47 °N, 71.54 °W | Updated 12 seconds ago

Clear
Clear
37.1 °F
Feels Like 37 °F
N
2.3
Wind Variable Wind from WNW
Gusts 2.3 mph

Today
High -- | Low -- °F
--% Chance of Precip.
Yesterday
High -- | Low -- °F
Precip. -- in
7:17 AM 4:15 PM
Waxing Crescent, 29% visible
Pressure 30.06 in
Visibility 10.0 miles
Clouds Clear
Windchill 37 °F
Dew Point 21 °F
Humidity 52%
Rainfall 0.00 in
Snow Depth Not available.
UV 0 out of 12
Pollen .10 out of 12
Air Quality Not available.
Flu Activity Not available.
METAR KLCI 262135Z AUTO 25004KT 10SM CLR 06/M03 A3006 RMK AO1

More Conditions Fewer Conditions

Pressure 30.06 in
Visibility 10.0 miles
Clouds Clear
Windchill 37 °F
Dew Point 21 °F
Humidity 52%
Rainfall 0.00 in
Snow Depth Not available.
UV 0 out of 12
Pollen .10 out of 12
Air Quality Not available.
Flu Activity Not available.
METAR KLCI 262135Z AUTO 25004KT 10SM CLR 06/M03 A3006 RMK AO1

More Conditions Fewer Conditions

10-Day Weather Forecast

Almanac

Astronomy

Dec. 26, 2014 Rise Set
Actual Time
Civil Twilight
Nautical Twilight
Astronomical Twilight
Moon
Length of Visible Light
Length of Day
Tomorrow will be .
, % of the Moon is Illuminated

Today's Extremes

State Highs State Lows

Community

WunderPhotos

Upload Photos

1,780,723 photos uploaded!

WunderBlogs® & News

Nearby

Air Quality

  Air Quality AQ Index Pollutant
Not available.

Snow Depth

Station Depth Elevation

Earthquake Activity

City Distance Mag. Time & Date
Minimum magnitude displayed is 2.5.

Coastal Water Temperatures

Place Temperature

Nearby Weather Stations